createdAt,value
2023-03-16T00:01:27.275Z,5.41
2023-03-16T00:06:30.821Z,5.40
2023-03-16T00:11:34.230Z,5.35
2023-03-16T00:16:37.775Z,5.31
2023-03-16T00:21:41.209Z,5.30
2023-03-16T00:26:46.531Z,5.22
2023-03-16T00:31:49.732Z,5.13
2023-03-16T00:36:53.097Z,5.06
2023-03-16T00:41:58.542Z,5.07
2023-03-16T00:47:02.122Z,5.00
2023-03-16T00:52:07.602Z,4.96
2023-03-16T00:57:14.112Z,4.92
2023-03-16T01:02:20.180Z,4.86
2023-03-16T01:07:25.190Z,4.78
2023-03-16T01:12:28.861Z,4.62
2023-03-16T01:17:35.346Z,4.53
2023-03-16T01:22:38.890Z,4.48
2023-03-16T01:27:43.258Z,4.45
2023-03-16T01:32:46.671Z,4.39
2023-03-16T01:37:50.271Z,4.39
2023-03-16T01:43:04.612Z,4.34
2023-03-16T01:48:15.447Z,4.30
2023-03-16T01:53:21.543Z,4.30
2023-03-16T01:58:24.894Z,4.27
2023-03-16T02:03:28.574Z,4.18
2023-03-16T02:08:36.717Z,4.13
2023-03-16T02:13:40.333Z,4.08
2023-03-16T02:18:43.781Z,4.06
2023-03-16T02:23:51.032Z,4.02
2023-03-16T02:29:14.254Z,3.98
2023-03-16T02:34:18.405Z,3.96
2023-03-16T02:39:21.861Z,3.97
2023-03-16T02:44:34.049Z,3.92
2023-03-16T02:49:42.717Z,3.88
2023-03-16T02:54:46.012Z,3.87
2023-03-16T02:59:49.914Z,3.86
2023-03-16T03:04:54.690Z,3.85
2023-03-16T03:10:00.268Z,3.78
2023-03-16T03:15:06.633Z,3.75
2023-03-16T03:20:18.666Z,3.69
2023-03-16T03:25:23.020Z,3.60
2023-03-16T03:30:28.756Z,3.48
2023-03-16T03:35:34.246Z,3.40
2023-03-16T03:40:38.052Z,3.38
2023-03-16T03:45:41.324Z,3.37
2023-03-16T03:50:46.582Z,3.35
2023-03-16T03:56:13.176Z,3.33
2023-03-16T04:01:16.544Z,3.29
2023-03-16T04:06:19.924Z,3.27
2023-03-16T04:11:23.583Z,3.26
2023-03-16T04:16:28.269Z,3.27
2023-03-16T04:21:32.565Z,3.31
2023-03-16T04:26:35.954Z,3.31
2023-03-16T04:31:43.353Z,3.22
2023-03-16T04:36:46.821Z,3.13
2023-03-16T04:41:50.392Z,3.05
2023-03-16T04:46:57.486Z,3.00
2023-03-16T04:52:02.391Z,2.94
2023-03-16T04:57:06.283Z,2.84
2023-03-16T05:02:15.015Z,2.75
2023-03-16T05:07:18.804Z,2.75
2023-03-16T05:12:25.766Z,2.72
2023-03-16T05:17:32.981Z,2.64
2023-03-16T05:22:36.320Z,2.53
2023-03-16T05:27:54.190Z,2.45
2023-03-16T05:33:39.302Z,2.43
2023-03-16T05:38:46.428Z,2.42
2023-03-16T05:43:56.311Z,2.46
2023-03-16T05:49:02.421Z,2.47
2023-03-16T05:54:06.670Z,2.49
2023-03-16T05:59:18.355Z,2.53
2023-03-16T06:04:26.163Z,2.58
2023-03-16T06:09:29.911Z,2.67
2023-03-16T06:14:33.687Z,2.71
2023-03-16T06:19:37.288Z,2.81
2023-03-16T06:24:40.683Z,2.90
2023-03-16T06:29:44.356Z,2.97
2023-03-16T06:34:49.017Z,3.12
2023-03-16T06:39:52.693Z,3.17
2023-03-16T06:44:56.295Z,3.26
2023-03-16T06:49:59.990Z,3.36
2023-03-16T06:55:03.743Z,3.45
2023-03-16T07:00:09.846Z,3.58
2023-03-16T07:05:14.400Z,3.74
2023-03-16T07:10:19.630Z,3.85
2023-03-16T07:15:26.464Z,3.90
2023-03-16T07:20:33.464Z,4.08
2023-03-16T07:25:39.601Z,4.21
2023-03-16T07:30:56.628Z,4.36
2023-03-16T07:36:10.958Z,4.55
2023-03-16T07:41:18.847Z,4.66
2023-03-16T07:46:22.783Z,4.85
2023-03-16T07:51:26.236Z,4.99
2023-03-16T07:56:36.151Z,5.16
2023-03-16T08:01:56.246Z,5.24
2023-03-16T08:07:02.483Z,5.42
2023-03-16T08:12:19.132Z,5.58
2023-03-16T08:17:23.078Z,5.67
2023-03-16T08:22:27.080Z,5.61
2023-03-16T08:27:31.210Z,5.78
2023-03-16T08:32:37.635Z,5.92
2023-03-16T08:37:42.347Z,6.14
2023-03-16T08:42:46.585Z,6.33
2023-03-16T08:47:51.519Z,6.50
2023-03-16T08:52:55.033Z,6.69
2023-03-16T08:57:58.388Z,6.75
2023-03-16T09:03:02.950Z,6.75
2023-03-16T09:08:06.808Z,6.77
2023-03-16T09:13:10.669Z,6.92
2023-03-16T09:18:14.222Z,6.90
2023-03-16T09:23:19.231Z,6.96
2023-03-16T09:28:22.659Z,6.98
2023-03-16T09:33:32.245Z,7.05
2023-03-16T09:38:37.395Z,7.34
2023-03-16T09:43:49.987Z,7.54
2023-03-16T09:48:56.146Z,7.86
2023-03-16T09:54:03.075Z,7.93
2023-03-16T09:59:14.011Z,7.82
2023-03-16T10:04:26.039Z,7.64
2023-03-16T10:09:35.105Z,7.48
2023-03-16T10:14:44.842Z,7.69
2023-03-16T10:19:59.800Z,8.14
2023-03-16T10:25:32.230Z,8.31
2023-03-16T10:30:37.695Z,8.24
2023-03-16T10:36:07.439Z,8.42
2023-03-16T10:41:23.450Z,8.64
2023-03-16T10:46:29.029Z,8.40
2023-03-16T10:51:37.847Z,8.69
2023-03-16T10:56:41.577Z,9.18
2023-03-16T11:01:50.214Z,9.39
2023-03-16T11:06:57.036Z,9.23
2023-03-16T11:12:15.690Z,9.11
2023-03-16T11:17:35.426Z,8.96
2023-03-16T11:22:41.304Z,9.00
2023-03-16T11:27:49.905Z,8.90
2023-03-16T11:32:54.672Z,8.71
2023-03-16T11:38:03.997Z,8.48
2023-03-16T11:43:18.708Z,8.15
2023-03-16T11:48:36.728Z,8.16
2023-03-16T11:54:21.988Z,8.57
2023-03-16T11:59:42.329Z,8.92
2023-03-16T12:04:56.980Z,8.86
2023-03-16T12:10:14.460Z,8.83
2023-03-16T12:15:36.371Z,8.79
2023-03-16T12:21:02.996Z,8.60
2023-03-16T12:26:07.109Z,8.44
2023-03-16T12:31:35.981Z,8.34
2023-03-16T12:36:52.897Z,8.41
2023-03-16T12:42:15.181Z,8.84
2023-03-16T12:47:33.905Z,9.22
2023-03-16T12:52:46.759Z,9.26
2023-03-16T12:57:59.041Z,9.14
2023-03-16T13:03:05.595Z,9.40
2023-03-16T13:08:13.902Z,9.84
2023-03-16T13:13:18.524Z,10.32
2023-03-16T13:18:25.194Z,10.82
2023-03-16T13:23:47.312Z,11.06
2023-03-16T13:28:55.204Z,11.57
2023-03-16T13:34:01.182Z,12.01
2023-03-16T13:39:15.234Z,12.14
2023-03-16T13:44:19.133Z,11.92
2023-03-16T13:49:23.294Z,11.61
2023-03-16T13:54:30.020Z,11.24
2023-03-16T13:59:33.959Z,10.76
2023-03-16T14:04:37.626Z,10.24
2023-03-16T14:09:41.569Z,10.05
2023-03-16T14:14:55.048Z,9.90
2023-03-16T14:20:01.229Z,9.82
2023-03-16T14:25:06.449Z,9.71
2023-03-16T14:30:18.712Z,9.60
2023-03-16T14:35:22.803Z,9.49
2023-03-16T14:40:26.355Z,9.45
2023-03-16T14:45:38.049Z,9.40
2023-03-16T14:50:41.655Z,9.32
2023-03-16T14:55:45.241Z,9.31
2023-03-16T15:00:54.502Z,9.25
2023-03-16T15:05:58.085Z,9.14
2023-03-16T15:11:06.497Z,9.07
2023-03-16T15:16:12.413Z,9.10
2023-03-16T15:21:21.532Z,9.10
2023-03-16T15:26:29.858Z,9.06
2023-03-16T15:31:33.632Z,9.03
2023-03-16T15:36:37.708Z,8.97
2023-03-16T15:41:47.841Z,8.88
2023-03-16T15:46:54.112Z,8.81
2023-03-16T15:51:57.358Z,8.74
2023-03-16T15:57:01.618Z,8.77
2023-03-16T16:02:24.719Z,8.81
2023-03-16T16:07:28.294Z,8.85
2023-03-16T16:12:32.418Z,8.89
2023-03-16T16:17:50.504Z,9.02
2023-03-16T16:29:26.838Z,8.87
2023-03-16T16:34:30.249Z,8.84
2023-03-16T16:39:34.092Z,8.78
2023-03-16T16:44:38.167Z,8.72
2023-03-16T16:49:41.500Z,8.73
2023-03-16T16:54:45.265Z,8.67
2023-03-16T16:59:49.248Z,8.64
2023-03-16T17:04:53.005Z,8.53
2023-03-16T17:09:56.883Z,8.46
2023-03-16T17:15:00.830Z,8.38
2023-03-16T17:20:14.872Z,8.39
2023-03-16T17:25:19.208Z,8.27
2023-03-16T17:30:25.276Z,8.18
2023-03-16T17:35:29.428Z,8.06
2023-03-16T17:40:33.945Z,7.98
2023-03-16T17:45:37.817Z,7.92
2023-03-16T17:50:41.885Z,7.93
2023-03-16T17:55:47.026Z,7.90
2023-03-16T18:00:55.022Z,7.83
2023-03-16T18:06:01.742Z,7.75
2023-03-16T18:11:13.190Z,7.63
2023-03-16T18:16:23.382Z,7.50
2023-03-16T18:21:27.369Z,7.37
2023-03-16T18:26:32.239Z,7.21
2023-03-16T18:31:35.936Z,7.06
2023-03-16T18:36:48.449Z,6.96
2023-03-16T18:41:52.876Z,6.83
2023-03-16T18:53:22.719Z,6.47
2023-03-16T18:58:26.262Z,6.36
2023-03-16T19:03:33.753Z,6.25
2023-03-16T19:08:37.200Z,6.13
2023-03-16T19:13:40.513Z,6.03
2023-03-16T19:18:44.191Z,5.92
2023-03-16T19:23:56.616Z,5.79
2023-03-16T19:29:01.722Z,5.79
2023-03-16T19:34:17.831Z,5.78
2023-03-16T19:39:21.821Z,5.64
2023-03-16T19:44:28.509Z,5.47
2023-03-16T19:49:32.184Z,5.37
2023-03-16T19:54:35.602Z,5.27
2023-03-16T19:59:38.980Z,5.17
2023-03-16T20:04:42.819Z,5.07
2023-03-16T20:09:46.835Z,5.03
2023-03-16T20:14:51.698Z,4.96
2023-03-16T20:19:56.529Z,4.87
2023-03-16T20:25:02.559Z,4.81
2023-03-16T20:30:16.309Z,4.77
2023-03-16T20:35:23.646Z,4.84
2023-03-16T20:40:27.327Z,4.76
2023-03-16T20:45:31.141Z,4.60
2023-03-16T20:50:34.796Z,4.45
2023-03-16T20:55:38.082Z,4.37
2023-03-16T21:00:42.023Z,4.37
2023-03-16T21:05:47.949Z,4.39
2023-03-16T21:10:54.327Z,4.31
2023-03-16T21:16:00.553Z,4.27
2023-03-16T21:21:04.265Z,4.20
2023-03-16T21:26:07.585Z,4.09
2023-03-16T21:31:18.949Z,4.00
2023-03-16T21:36:26.697Z,3.93
2023-03-16T21:41:30.157Z,3.84
2023-03-16T21:46:33.949Z,3.77
2023-03-16T21:51:37.706Z,3.68
2023-03-16T21:56:42.584Z,3.60
2023-03-16T22:02:00.655Z,3.51
2023-03-16T22:07:11.317Z,3.44
2023-03-16T22:12:14.656Z,3.39
2023-03-16T22:17:22.679Z,3.35
2023-03-16T22:22:27.513Z,3.38
2023-03-16T22:27:30.797Z,3.37
2023-03-16T22:32:36.840Z,3.35
2023-03-16T22:37:40.051Z,3.30
2023-03-16T22:42:43.390Z,3.24
2023-03-16T22:47:47.948Z,3.15
2023-03-16T22:52:54.399Z,3.08
2023-03-16T22:58:36.394Z,2.99
2023-03-16T23:03:40.978Z,2.94
2023-03-16T23:08:44.676Z,2.92
2023-03-16T23:13:48.976Z,2.91
2023-03-16T23:18:52.706Z,2.88
2023-03-16T23:24:03.410Z,2.84
2023-03-16T23:29:08.179Z,2.81
2023-03-16T23:34:17.101Z,2.75
2023-03-16T23:39:20.694Z,2.71
2023-03-16T23:44:28.060Z,2.71
2023-03-16T23:49:41.561Z,2.72
2023-03-16T23:54:44.788Z,2.67
2023-03-16T23:59:48.246Z,2.65
